createdAt,value
2022-10-28T00:01:21.598Z,18.90
2022-10-28T00:03:54.139Z,19.45
2022-10-28T00:06:27.500Z,18.23
2022-10-28T00:08:54.713Z,17.25
2022-10-28T00:11:25.161Z,18.33
2022-10-28T00:14:00.532Z,18.45
2022-10-28T00:16:30.883Z,17.65
2022-10-28T00:19:02.809Z,18.55
2022-10-28T00:21:47.988Z,20.55
2022-10-28T00:24:15.263Z,19.95
2022-10-28T00:26:43.661Z,19.35
2022-10-28T00:29:16.531Z,19.52
2022-10-28T00:31:44.276Z,20.17
2022-10-28T00:34:17.029Z,19.13
2022-10-28T00:36:46.063Z,20.42
2022-10-28T00:39:22.642Z,19.92
2022-10-28T00:41:55.355Z,19.67
2022-10-28T00:44:49.817Z,19.58
2022-10-28T00:47:35.159Z,18.60
2022-10-28T00:50:25.388Z,18.77
2022-10-28T00:53:03.235Z,18.15
2022-10-28T00:55:31.935Z,18.67
2022-10-28T00:58:00.461Z,16.92
2022-10-28T01:00:27.719Z,17.08
2022-10-28T01:02:56.843Z,18.00
2022-10-28T01:05:28.270Z,17.98
2022-10-28T01:07:59.578Z,18.73
2022-10-28T01:10:35.886Z,17.50
2022-10-28T01:13:20.527Z,16.67
2022-10-28T01:16:17.653Z,17.23
2022-10-28T01:19:19.744Z,16.73
2022-10-28T01:22:21.546Z,18.38
2022-10-28T01:25:17.650Z,17.20
2022-10-28T01:27:56.755Z,17.08
2022-10-28T01:30:26.835Z,17.77
2022-10-28T01:33:15.611Z,17.58
2022-10-28T01:36:05.053Z,17.38
2022-10-28T01:39:14.278Z,15.52
2022-10-28T01:41:59.366Z,16.80
2022-10-28T01:44:33.058Z,16.70
2022-10-28T01:47:26.924Z,17.17
2022-10-28T01:50:30.465Z,15.70
2022-10-28T01:53:02.294Z,15.90
2022-10-28T01:55:38.810Z,14.75
2022-10-28T01:58:08.676Z,14.70
2022-10-28T02:00:37.188Z,15.03
2022-10-28T02:03:07.946Z,15.32
2022-10-28T02:08:21.922Z,15.40
2022-10-28T02:11:00.859Z,14.65
2022-10-28T02:14:05.251Z,15.00
2022-10-28T02:16:51.722Z,15.65
2022-10-28T02:19:36.846Z,14.68
2022-10-28T02:22:25.104Z,15.38
2022-10-28T02:25:10.465Z,15.48
2022-10-28T02:27:46.086Z,15.57
2022-10-28T02:30:23.222Z,15.40
2022-10-28T02:32:54.237Z,14.98
2022-10-28T02:35:31.037Z,16.33
2022-10-28T02:38:02.853Z,14.90
2022-10-28T02:40:33.097Z,14.95
2022-10-28T02:43:04.532Z,16.08
2022-10-28T02:45:44.103Z,15.85
2022-10-28T02:48:22.260Z,14.95
2022-10-28T02:50:57.985Z,15.23
2022-10-28T02:53:32.333Z,14.50
2022-10-28T02:56:03.081Z,15.30
2022-10-28T03:01:04.694Z,15.50
2022-10-28T03:03:31.911Z,14.50
2022-10-28T03:05:59.843Z,15.55
2022-10-28T03:08:26.801Z,15.45
2022-10-28T03:10:53.803Z,15.30
2022-10-28T03:13:20.818Z,14.52
2022-10-28T03:15:47.884Z,14.48
2022-10-28T03:18:14.844Z,14.50
2022-10-28T03:20:41.843Z,13.57
2022-10-28T03:23:08.900Z,13.73
2022-10-28T03:25:35.940Z,14.52
2022-10-28T03:28:03.129Z,14.07
2022-10-28T03:30:30.331Z,14.13
2022-10-28T03:32:57.384Z,14.40
2022-10-28T03:35:24.590Z,15.15
2022-10-28T03:37:51.599Z,14.27
2022-10-28T03:40:18.659Z,14.48
2022-10-28T03:42:45.767Z,14.63
2022-10-28T03:45:13.024Z,14.05
2022-10-28T03:47:42.177Z,14.40
2022-10-28T03:50:10.315Z,14.35
2022-10-28T03:52:37.668Z,14.80
2022-10-28T03:55:05.104Z,14.23
2022-10-28T03:57:33.115Z,14.55
2022-10-28T04:00:00.268Z,14.85
2022-10-28T04:02:27.669Z,14.98
2022-10-28T04:04:54.761Z,15.38
2022-10-28T04:07:21.826Z,15.02
2022-10-28T04:09:51.507Z,14.98
2022-10-28T04:12:18.903Z,15.20
2022-10-28T04:14:46.109Z,14.52
2022-10-28T04:17:14.353Z,15.43
2022-10-28T04:19:41.383Z,13.88
2022-10-28T04:22:09.930Z,16.00
2022-10-28T04:24:36.902Z,15.35
2022-10-28T04:27:03.991Z,15.35
2022-10-28T04:29:32.058Z,15.77
2022-10-28T04:31:59.841Z,14.45
2022-10-28T04:34:27.103Z,15.93
2022-10-28T04:36:54.171Z,15.25
2022-10-28T04:39:21.318Z,14.35
2022-10-28T04:41:48.548Z,16.15
2022-10-28T04:44:15.566Z,15.75
2022-10-28T04:46:42.599Z,15.35
2022-10-28T04:49:09.983Z,16.23
2022-10-28T04:51:37.070Z,15.63
2022-10-28T04:54:04.286Z,15.88
2022-10-28T04:56:33.388Z,16.48
2022-10-28T04:59:00.435Z,16.38
2022-10-28T05:01:27.591Z,16.50
2022-10-28T05:03:54.897Z,16.70
2022-10-28T05:06:21.909Z,17.35
2022-10-28T05:08:48.892Z,16.40
2022-10-28T05:11:15.953Z,16.33
2022-10-28T05:13:42.958Z,16.30
2022-10-28T05:16:09.933Z,16.50
2022-10-28T05:18:37.042Z,17.20
2022-10-28T05:21:04.333Z,17.30
2022-10-28T05:23:31.371Z,17.60
2022-10-28T05:25:58.541Z,17.90
2022-10-28T05:28:25.603Z,17.15
2022-10-28T05:30:52.654Z,18.35
2022-10-28T05:33:19.703Z,17.50
2022-10-28T05:35:46.986Z,18.70
2022-10-28T05:38:14.163Z,19.50
2022-10-28T05:40:41.378Z,19.60
2022-10-28T05:43:10.032Z,20.13
2022-10-28T05:45:37.333Z,20.77
2022-10-28T05:48:04.619Z,20.38
2022-10-28T05:50:31.616Z,21.00
2022-10-28T05:52:58.637Z,20.42
2022-10-28T05:55:29.687Z,20.52
2022-10-28T05:57:57.329Z,20.40
2022-10-28T06:00:26.326Z,20.60
2022-10-28T06:02:53.814Z,21.73
2022-10-28T06:05:21.128Z,20.88
2022-10-28T06:07:48.259Z,19.20
2022-10-28T06:10:16.060Z,19.58
2022-10-28T06:12:41.479Z,20.73
2022-10-28T06:15:08.937Z,20.30
2022-10-28T06:17:36.015Z,19.38
2022-10-28T06:20:04.508Z,20.00
2022-10-28T06:22:31.654Z,19.30
2022-10-28T06:24:58.945Z,18.85
2022-10-28T06:27:26.072Z,19.35
2022-10-28T06:29:53.825Z,19.17
2022-10-28T06:32:20.888Z,18.40
2022-10-28T06:34:47.858Z,19.80
2022-10-28T06:37:14.942Z,19.15
2022-10-28T06:39:43.129Z,19.77
2022-10-28T06:42:10.317Z,18.90
2022-10-28T06:44:37.389Z,18.80
2022-10-28T06:47:06.127Z,19.70
2022-10-28T06:49:33.210Z,20.45
2022-10-28T06:52:00.188Z,22.63
2022-10-28T06:54:27.275Z,20.88
2022-10-28T06:56:54.313Z,21.27
2022-10-28T06:59:21.468Z,20.30
2022-10-28T07:01:48.664Z,22.25
2022-10-28T07:04:15.902Z,22.65
2022-10-28T07:06:44.009Z,20.73
2022-10-28T07:09:15.893Z,20.80
2022-10-28T07:11:45.765Z,20.13
2022-10-28T07:14:12.805Z,19.80
2022-10-28T07:16:39.828Z,21.90
2022-10-28T07:19:06.862Z,20.23
2022-10-28T07:21:34.287Z,19.65
2022-10-28T07:24:02.013Z,20.02
2022-10-28T07:26:29.140Z,19.90
2022-10-28T07:28:56.270Z,19.02
2022-10-28T07:31:24.057Z,18.95
2022-10-28T07:33:53.704Z,19.98
2022-10-28T07:36:21.320Z,19.45
2022-10-28T07:38:52.876Z,20.35
2022-10-28T07:41:21.843Z,19.17
2022-10-28T07:43:49.442Z,20.65
2022-10-28T07:46:17.061Z,18.42
2022-10-28T07:48:44.296Z,17.90
2022-10-28T07:51:13.993Z,19.33
2022-10-28T07:53:41.250Z,17.48
2022-10-28T07:56:13.340Z,17.73
2022-10-28T07:58:42.216Z,19.42
2022-10-28T08:01:11.284Z,19.25
2022-10-28T08:03:39.257Z,19.00
2022-10-28T08:06:17.972Z,17.52
2022-10-28T08:08:46.935Z,16.55
2022-10-28T08:11:19.425Z,18.33
2022-10-28T08:13:47.567Z,15.20
2022-10-28T08:16:15.072Z,17.52
2022-10-28T08:18:42.047Z,18.00
2022-10-28T08:21:10.948Z,16.58
2022-10-28T08:23:38.519Z,16.70
2022-10-28T08:26:06.128Z,16.77
2022-10-28T08:28:33.353Z,16.90
2022-10-28T08:31:08.642Z,17.80
2022-10-28T08:33:42.338Z,17.75
2022-10-28T08:36:12.260Z,16.95
2022-10-28T08:38:45.106Z,17.00
2022-10-28T08:41:46.009Z,15.65
2022-10-28T08:44:42.257Z,16.92
2022-10-28T08:47:32.563Z,15.65
2022-10-28T08:50:05.522Z,15.57
2022-10-28T08:52:43.254Z,16.50
2022-10-28T08:55:25.646Z,15.45
2022-10-28T08:58:26.896Z,15.52
2022-10-28T09:00:56.582Z,16.27
2022-10-28T09:03:39.001Z,17.25
2022-10-28T09:06:09.364Z,16.75
2022-10-28T09:08:47.016Z,16.65
2022-10-28T09:11:40.087Z,15.32
2022-10-28T09:14:14.106Z,15.02
2022-10-28T09:16:41.164Z,15.60
2022-10-28T09:19:32.328Z,15.23
2022-10-28T09:22:04.946Z,13.27
2022-10-28T09:24:51.516Z,14.85
2022-10-28T09:27:49.955Z,14.43
2022-10-28T09:30:40.168Z,14.95
2022-10-28T09:33:35.891Z,14.05
2022-10-28T09:36:11.658Z,13.65
2022-10-28T09:38:39.546Z,14.25
2022-10-28T09:41:23.071Z,12.80
2022-10-28T09:44:02.670Z,13.30
2022-10-28T09:46:34.704Z,14.05
2022-10-28T09:49:11.758Z,13.23
2022-10-28T09:51:46.500Z,13.23
2022-10-28T09:54:14.639Z,12.63
2022-10-28T09:56:41.727Z,14.02
2022-10-28T09:59:14.223Z,13.70
2022-10-28T10:01:43.031Z,12.45
2022-10-28T10:04:21.734Z,11.13
2022-10-28T10:06:54.407Z,10.85
2022-10-28T10:09:27.965Z,14.27
2022-10-28T10:12:10.599Z,12.68
2022-10-28T10:14:43.006Z,11.20
2022-10-28T10:17:36.522Z,10.00
2022-10-28T10:20:11.981Z,10.23
2022-10-28T10:22:45.250Z,10.25
2022-10-28T10:25:18.969Z,10.63
2022-10-28T10:28:04.687Z,8.98
2022-10-28T10:30:49.825Z,8.75
2022-10-28T10:33:35.000Z,8.98
2022-10-28T10:36:12.770Z,9.02
2022-10-28T10:38:48.319Z,9.70
2022-10-28T10:41:45.871Z,9.40
2022-10-28T10:44:22.257Z,9.48
2022-10-28T10:46:55.765Z,9.80
2022-10-28T10:49:22.859Z,8.75
2022-10-28T10:51:56.883Z,9.98
2022-10-28T10:54:29.941Z,9.07
2022-10-28T10:57:09.895Z,9.13
2022-10-28T10:59:38.086Z,9.43
2022-10-28T11:02:27.247Z,9.23
2022-10-28T11:05:02.001Z,9.38
2022-10-28T11:07:32.350Z,9.75
2022-10-28T11:10:00.007Z,9.02
2022-10-28T11:12:32.157Z,8.88
2022-10-28T11:15:02.021Z,7.68
2022-10-28T11:20:25.693Z,7.63
2022-10-28T11:23:19.087Z,8.02
2022-10-28T11:25:53.669Z,7.97
2022-10-28T11:28:36.134Z,7.60
2022-10-28T11:31:38.823Z,7.82
2022-10-28T11:34:24.645Z,8.00
2022-10-28T11:37:10.572Z,8.20
2022-10-28T11:40:06.916Z,7.60
2022-10-28T11:43:03.047Z,7.75
2022-10-28T11:45:48.702Z,8.40
2022-10-28T13:15:53.438Z,6.90
2022-10-28T13:18:53.257Z,7.68
2022-10-28T13:21:51.182Z,7.65
2022-10-28T13:24:35.427Z,7.45
2022-10-28T13:27:04.373Z,7.90
2022-10-28T13:29:33.925Z,6.70
2022-10-28T13:32:01.494Z,7.65
2022-10-28T13:34:40.946Z,7.53
2022-10-28T13:37:19.746Z,7.22
2022-10-28T13:39:47.843Z,7.47
2022-10-28T13:42:23.471Z,6.97
2022-10-28T13:44:51.571Z,7.07
2022-10-28T13:47:29.375Z,7.32
2022-10-28T13:50:09.571Z,8.27
2022-10-28T13:52:38.553Z,8.48
2022-10-28T13:55:14.695Z,8.60
2022-10-28T13:57:47.559Z,8.70
2022-10-28T14:00:17.709Z,9.18
2022-10-28T14:03:07.101Z,9.15
2022-10-28T14:05:37.416Z,9.52
2022-10-28T14:08:07.937Z,8.82
2022-10-28T14:10:38.351Z,9.52
2022-10-28T14:13:25.827Z,8.90
2022-10-28T14:16:18.309Z,9.88
2022-10-28T14:19:00.429Z,9.23
2022-10-28T14:22:03.349Z,9.65
2022-10-28T14:24:31.988Z,10.05
2022-10-28T14:27:08.254Z,10.38
2022-10-28T14:29:58.387Z,9.85
2022-10-28T14:32:31.427Z,10.07
2022-10-28T14:35:04.428Z,9.45
2022-10-28T14:38:03.678Z,9.38
2022-10-28T14:40:49.217Z,10.55
2022-10-28T14:43:24.002Z,10.13
2022-10-28T14:46:11.682Z,10.70
2022-10-28T14:48:47.245Z,10.68
2022-10-28T14:51:21.315Z,10.10
2022-10-28T14:53:53.104Z,10.35
2022-10-28T14:56:28.025Z,10.73
2022-10-28T14:58:59.708Z,10.93
2022-10-28T15:01:28.660Z,10.93
2022-10-28T15:04:01.241Z,10.85
2022-10-28T15:06:39.387Z,11.05
2022-10-28T15:09:32.043Z,11.02
2022-10-28T15:12:07.813Z,10.98
2022-10-28T15:14:39.237Z,11.25
2022-10-28T15:17:21.160Z,11.52
2022-10-28T15:19:56.718Z,11.13
2022-10-28T15:22:32.290Z,11.80
2022-10-28T15:25:00.706Z,12.75
2022-10-28T15:27:33.954Z,11.85
2022-10-28T15:30:03.224Z,12.65
2022-10-28T15:32:35.518Z,11.90
2022-10-28T15:35:40.240Z,13.57
2022-10-28T15:38:34.955Z,11.65
2022-10-28T15:41:02.154Z,12.05
2022-10-28T15:43:31.149Z,12.38
2022-10-28T15:46:15.977Z,12.05
2022-10-28T15:48:43.036Z,11.68
2022-10-28T15:51:18.408Z,12.45
2022-10-28T15:53:49.348Z,11.05
2022-10-28T15:58:59.252Z,11.93
2022-10-28T16:01:39.608Z,12.75
2022-10-28T16:04:26.780Z,11.95
2022-10-28T16:06:57.464Z,13.15
2022-10-28T16:09:33.260Z,12.50
2022-10-28T16:12:32.922Z,12.93
2022-10-28T16:15:02.077Z,12.50
2022-10-28T16:17:36.465Z,12.88
2022-10-28T16:20:17.205Z,13.10
2022-10-28T16:22:46.779Z,13.15
2022-10-28T16:25:22.879Z,12.70
2022-10-28T16:27:50.294Z,13.98
2022-10-28T16:30:18.194Z,13.20
2022-10-28T16:32:47.929Z,13.90
2022-10-28T16:35:17.995Z,13.32
2022-10-28T16:37:47.384Z,13.80
2022-10-28T16:40:45.549Z,13.77
2022-10-28T16:43:04.194Z,13.73
2022-10-28T16:45:31.285Z,13.90
2022-10-28T16:47:58.493Z,13.32
2022-10-28T16:50:25.855Z,13.80
2022-10-28T16:52:54.467Z,13.15
2022-10-28T16:55:21.514Z,14.95
2022-10-28T16:57:48.624Z,13.90
2022-10-28T17:00:16.374Z,14.10
2022-10-28T17:02:43.512Z,14.35
2022-10-28T17:05:20.047Z,14.50
2022-10-28T17:07:47.623Z,13.90
2022-10-28T17:10:16.180Z,15.30
2022-10-28T17:12:43.268Z,14.02
2022-10-28T17:15:10.935Z,14.20
2022-10-28T17:17:38.165Z,14.18
2022-10-28T17:20:06.045Z,14.30
2022-10-28T17:22:33.736Z,13.80
2022-10-28T17:25:00.985Z,13.38
2022-10-28T17:27:29.630Z,13.60
2022-10-28T17:29:56.920Z,12.70
2022-10-28T17:32:24.630Z,13.88
2022-10-28T17:34:51.969Z,13.57
2022-10-28T17:37:19.351Z,13.82
2022-10-28T17:39:46.356Z,13.48
2022-10-28T17:42:13.369Z,13.57
2022-10-28T17:44:40.526Z,14.25
2022-10-28T17:47:07.569Z,14.55
2022-10-28T17:49:36.579Z,13.55
2022-10-28T17:52:03.667Z,13.95
2022-10-28T17:54:30.865Z,14.80
2022-10-28T17:56:57.966Z,13.00
2022-10-28T17:59:25.029Z,13.75
2022-10-28T18:01:52.242Z,14.80
2022-10-28T18:04:20.349Z,14.45
2022-10-28T18:06:47.383Z,13.48
2022-10-28T18:09:14.825Z,14.10
2022-10-28T18:11:41.871Z,13.60
2022-10-28T18:14:08.910Z,13.50
2022-10-28T18:16:37.519Z,13.50
2022-10-28T18:19:06.330Z,14.52
2022-10-28T18:21:34.534Z,14.60
2022-10-28T18:24:04.498Z,14.25
2022-10-28T18:26:33.602Z,14.15
2022-10-28T18:29:04.158Z,14.05
2022-10-28T18:34:01.350Z,14.70
2022-10-28T18:36:34.565Z,14.20
2022-10-28T18:39:04.363Z,14.65
2022-10-28T18:41:33.191Z,14.23
2022-10-28T18:44:05.106Z,15.55
2022-10-28T18:46:35.425Z,14.35
2022-10-28T18:49:02.902Z,14.52
2022-10-28T18:51:30.125Z,13.70
2022-10-28T18:53:57.804Z,14.55
2022-10-28T18:56:29.330Z,14.57
2022-10-28T18:58:58.946Z,13.68
2022-10-28T19:01:28.324Z,14.70
2022-10-28T19:04:00.639Z,14.93
2022-10-28T19:06:32.561Z,14.02
2022-10-28T19:09:03.013Z,15.18
2022-10-28T19:11:31.941Z,14.45
2022-10-28T19:14:00.408Z,14.90
2022-10-28T19:16:28.757Z,14.90
2022-10-28T19:18:57.660Z,16.42
2022-10-28T19:21:25.551Z,14.70
2022-10-28T19:23:54.308Z,15.95
2022-10-28T19:26:23.235Z,15.98
2022-10-28T19:28:51.834Z,16.08
2022-10-28T19:31:21.642Z,17.52
2022-10-28T19:33:49.540Z,16.40
2022-10-28T19:36:28.010Z,15.73
2022-10-28T19:38:56.209Z,15.82
2022-10-28T19:41:29.427Z,14.38
2022-10-28T19:43:59.011Z,16.83
2022-10-28T19:46:28.302Z,16.40
2022-10-28T19:48:58.623Z,16.30
2022-10-28T19:51:28.897Z,16.02
2022-10-28T19:53:58.229Z,16.70
2022-10-28T19:56:25.907Z,17.45
2022-10-28T19:58:55.751Z,16.95
2022-10-28T20:01:25.119Z,16.67
2022-10-28T20:03:53.793Z,15.68
2022-10-28T20:06:23.135Z,16.30
2022-10-28T20:08:50.786Z,16.38
2022-10-28T20:11:26.135Z,17.17
2022-10-28T20:14:06.013Z,17.00
2022-10-28T20:16:33.600Z,16.45
2022-10-28T20:19:00.917Z,17.02
2022-10-28T20:21:30.308Z,18.52
2022-10-28T20:23:58.255Z,17.90
2022-10-28T20:26:28.341Z,17.48
2022-10-28T20:28:56.394Z,18.17
2022-10-28T20:31:26.223Z,19.25
2022-10-28T20:33:56.829Z,18.35
2022-10-28T20:36:27.848Z,18.17
2022-10-28T20:38:56.916Z,18.67
2022-10-28T20:41:25.336Z,19.42
2022-10-28T20:43:53.121Z,20.13
2022-10-28T20:46:21.846Z,19.83
2022-10-28T20:48:49.517Z,20.60
2022-10-28T20:51:17.030Z,19.23
2022-10-28T20:53:43.970Z,20.08
2022-10-28T20:56:23.981Z,19.13
2022-10-28T20:58:52.238Z,20.00
2022-10-28T21:01:22.379Z,18.33
2022-10-28T21:03:52.776Z,19.65
2022-10-28T21:08:47.498Z,18.55
2022-10-28T21:11:16.101Z,18.92
2022-10-28T21:13:43.951Z,19.00
2022-10-28T21:16:12.878Z,17.67
2022-10-28T21:18:40.179Z,19.02
2022-10-28T21:21:07.578Z,19.27
2022-10-28T21:23:34.697Z,18.85
2022-10-28T21:26:05.198Z,18.55
2022-10-28T21:28:33.969Z,18.95
2022-10-28T21:31:06.691Z,19.92
2022-10-28T21:33:35.856Z,19.20
2022-10-28T21:36:06.627Z,19.30
2022-10-28T21:41:05.589Z,19.67
2022-10-28T21:43:35.227Z,19.95
2022-10-28T21:46:02.560Z,19.30
2022-10-28T21:48:30.962Z,19.25
2022-10-28T21:51:01.454Z,19.23
2022-10-28T21:53:32.759Z,19.27
2022-10-28T21:56:09.090Z,20.25
2022-10-28T21:58:38.412Z,18.58
2022-10-28T22:01:17.752Z,19.25
2022-10-28T22:03:44.867Z,19.73
2022-10-28T22:06:12.010Z,19.73
2022-10-28T22:08:38.950Z,18.50
2022-10-28T22:11:19.317Z,20.20
2022-10-28T22:13:48.310Z,20.85
2022-10-28T22:16:17.629Z,19.02
2022-10-28T22:18:45.323Z,20.70
2022-10-28T22:21:18.331Z,20.08
2022-10-28T22:23:45.429Z,19.30
2022-10-28T22:26:15.723Z,19.73
2022-10-28T22:28:43.114Z,19.20
2022-10-28T22:31:13.249Z,20.70
2022-10-28T22:33:40.884Z,19.65
2022-10-28T22:36:10.767Z,20.83
2022-10-28T22:38:38.049Z,20.20
2022-10-28T22:41:15.663Z,19.80
2022-10-28T22:43:45.051Z,19.65
2022-10-28T22:46:15.141Z,18.83
2022-10-28T22:48:42.309Z,20.42
2022-10-28T22:51:09.982Z,20.02
2022-10-28T22:53:39.049Z,19.42
2022-10-28T22:56:07.354Z,20.48
2022-10-28T22:58:34.513Z,19.45
2022-10-28T23:01:31.761Z,18.92
2022-10-28T23:03:59.303Z,19.40
2022-10-28T23:06:27.352Z,18.05
2022-10-28T23:08:55.189Z,17.35
2022-10-28T23:11:22.902Z,17.23
2022-10-28T23:13:54.234Z,16.17
2022-10-28T23:16:22.370Z,15.32
2022-10-28T23:18:49.934Z,14.88
2022-10-28T23:21:19.414Z,13.75
2022-10-28T23:23:51.125Z,14.35
2022-10-28T23:26:21.719Z,14.50
2022-10-28T23:28:53.416Z,13.48
2022-10-28T23:31:21.204Z,13.68
2022-10-28T23:33:48.238Z,12.75
2022-10-28T23:36:15.958Z,13.95
2022-10-28T23:38:43.249Z,12.77
2022-10-28T23:41:18.654Z,12.68
2022-10-28T23:43:48.846Z,12.43
2022-10-28T23:46:16.320Z,11.48
2022-10-28T23:48:43.540Z,11.40
2022-10-28T23:51:10.822Z,10.90
2022-10-28T23:53:38.369Z,11.52
2022-10-28T23:56:06.162Z,11.65
2022-10-28T23:58:33.303Z,10.13
